createdAt,value
2022-11-08T00:05:09.105Z,14.50
2022-11-08T00:15:00.792Z,14.40
2022-11-08T00:20:04.951Z,14.20
2022-11-08T00:35:04.651Z,14.10
2022-11-08T00:45:00.530Z,14.00
2022-11-08T00:55:04.835Z,13.90
2022-11-08T01:05:00.600Z,13.80
2022-11-08T01:10:04.987Z,13.90
2022-11-08T01:15:02.734Z,13.70
2022-11-08T01:20:00.656Z,13.80
2022-11-08T01:25:04.754Z,13.70
2022-11-08T01:31:05.834Z,13.70
2022-11-08T01:31:09.576Z,13.70
2022-11-08T01:34:58.698Z,13.60
2022-11-08T01:39:58.848Z,13.70
2022-11-08T01:45:03.548Z,13.50
2022-11-08T01:50:04.302Z,13.60
2022-11-08T01:55:05.558Z,13.50
2022-11-08T02:24:59.250Z,13.40
2022-11-08T02:34:58.863Z,13.30
2022-11-08T02:39:58.944Z,13.20
2022-11-08T02:44:58.997Z,13.00
2022-11-08T02:54:58.955Z,12.90
2022-11-08T02:59:58.867Z,13.00
2022-11-08T03:04:58.900Z,12.90
2022-11-08T03:09:58.962Z,12.80
2022-11-08T03:14:58.966Z,12.70
2022-11-08T03:34:59.913Z,12.60
2022-11-08T03:54:59.070Z,12.50
2022-11-08T04:04:59.138Z,12.40
2022-11-08T04:15:09.116Z,12.30
2022-11-08T04:44:59.172Z,12.20
2022-11-08T04:54:59.222Z,12.10
2022-11-08T04:59:59.249Z,12.20
2022-11-08T05:39:59.499Z,12.40
2022-11-08T05:44:59.315Z,12.20
2022-11-08T05:49:59.380Z,12.30
2022-11-08T06:10:06.598Z,12.40
2022-11-08T06:15:03.604Z,12.30
2022-11-08T06:20:05.153Z,12.40
2022-11-08T06:25:05.777Z,12.20
2022-11-08T06:29:48.074Z,12.20
2022-11-08T06:39:59.666Z,12.30
2022-11-08T06:44:59.474Z,12.20
2022-11-08T06:49:59.534Z,12.30
2022-11-08T06:54:59.614Z,12.20
2022-11-08T07:29:59.765Z,12.40
2022-11-08T07:34:59.673Z,12.30
2022-11-08T07:39:59.655Z,12.40
2022-11-08T07:49:59.850Z,12.60
2022-11-08T08:00:02.449Z,12.70
2022-11-08T08:09:59.828Z,12.90
2022-11-08T08:14:59.763Z,12.80
2022-11-08T08:19:59.701Z,13.00
2022-11-08T08:29:59.764Z,13.10
2022-11-08T08:34:59.790Z,13.00
2022-11-08T08:39:59.810Z,13.20
2022-11-08T08:49:59.782Z,13.30
2022-11-08T09:04:59.883Z,13.40
2022-11-08T09:10:00.237Z,13.50
2022-11-08T09:20:00.239Z,13.70
2022-11-08T09:25:00.347Z,13.50
2022-11-08T09:29:59.985Z,13.60
2022-11-08T09:35:00.057Z,13.80
2022-11-08T09:45:19.830Z,14.00
2022-11-08T10:05:04.702Z,14.30
2022-11-08T10:10:15.613Z,14.60
2022-11-08T10:15:15.371Z,14.80
2022-11-08T10:20:10.322Z,15.00
2022-11-08T10:25:01.830Z,15.10
2022-11-08T10:40:14.490Z,15.40
2022-11-08T10:45:00.146Z,15.30
2022-11-08T10:55:00.922Z,15.10
2022-11-08T11:15:02.838Z,15.60
2022-11-08T11:20:00.518Z,16.70
2022-11-08T11:25:12.649Z,17.90
2022-11-08T11:30:12.002Z,19.10
2022-11-08T11:35:03.186Z,19.70
2022-11-08T11:40:10.767Z,19.50
2022-11-08T11:45:08.756Z,19.20
2022-11-08T11:50:11.158Z,19.30
2022-11-08T11:55:01.463Z,19.60
2022-11-08T12:00:09.366Z,20.20
2022-11-08T12:05:17.762Z,19.90
2022-11-08T12:10:13.700Z,20.20
2022-11-08T12:15:12.098Z,21.50
2022-11-08T12:20:01.451Z,20.50
2022-11-08T12:25:10.522Z,19.70
2022-11-08T12:30:02.754Z,18.80
2022-11-08T12:35:18.779Z,18.30
2022-11-08T12:40:13.753Z,18.20
2022-11-08T12:45:11.444Z,17.40
2022-11-08T12:50:20.323Z,17.30
2022-11-08T12:55:04.097Z,17.10
2022-11-08T13:00:07.581Z,16.90
2022-11-08T13:05:07.487Z,16.60
2022-11-08T13:10:12.685Z,16.50
2022-11-08T13:15:01.965Z,16.40
2022-11-08T13:20:06.086Z,16.30
2022-11-08T13:25:04.182Z,16.10
2022-11-08T13:30:13.026Z,16.20
2022-11-08T13:35:11.154Z,16.10
2022-11-08T13:40:11.575Z,16.00
2022-11-08T13:45:20.499Z,16.10
2022-11-08T13:50:20.493Z,16.20
2022-11-08T13:55:00.664Z,15.90
2022-11-08T14:00:00.928Z,16.00
2022-11-08T14:05:19.240Z,16.10
2022-11-08T14:10:10.682Z,16.30
2022-11-08T14:15:13.393Z,16.20
2022-11-08T14:20:21.829Z,16.10
2022-11-08T14:25:20.577Z,16.40
2022-11-08T14:30:01.486Z,16.30
2022-11-08T14:40:00.962Z,16.20
2022-11-08T14:45:00.942Z,16.00
2022-11-08T14:55:04.505Z,15.90
2022-11-08T15:00:06.451Z,16.00
2022-11-08T15:05:00.953Z,15.90
2022-11-08T15:10:09.431Z,16.00
2022-11-08T15:15:01.182Z,15.90
2022-11-08T15:30:07.497Z,15.80
2022-11-08T15:35:01.534Z,15.60
2022-11-08T15:40:04.643Z,15.80
2022-11-08T15:55:00.982Z,15.70
2022-11-08T16:05:05.086Z,15.60
2022-11-08T16:10:01.061Z,15.70
2022-11-08T16:15:00.971Z,15.60
2022-11-08T16:20:01.014Z,15.70
2022-11-08T16:25:01.014Z,15.50
2022-11-08T16:35:01.096Z,15.40
2022-11-08T16:40:01.321Z,15.50
2022-11-08T16:45:01.055Z,15.40
2022-11-08T16:55:01.191Z,15.10
2022-11-08T17:00:01.613Z,15.30
2022-11-08T17:05:01.250Z,15.20
2022-11-08T17:15:01.194Z,15.10
2022-11-08T17:20:01.135Z,15.20
2022-11-08T17:33:39.804Z,15.20
2022-11-08T17:33:41.144Z,15.20
2022-11-08T17:40:02.353Z,15.30
2022-11-08T17:45:01.241Z,15.10
2022-11-08T17:55:01.386Z,15.00
2022-11-08T18:05:03.996Z,14.80
2022-11-08T18:10:01.878Z,14.90
2022-11-08T18:40:03.205Z,15.00
2022-11-08T19:05:07.679Z,15.10
2022-11-08T19:09:46.444Z,15.10
2022-11-08T19:10:54.286Z,15.10
2022-11-08T19:10:56.096Z,15.10
2022-11-08T19:15:01.438Z,15.00
2022-11-08T19:20:07.972Z,15.20
2022-11-08T19:25:04.106Z,15.10
2022-11-08T19:30:03.834Z,15.30
2022-11-08T19:35:07.843Z,15.10
2022-11-08T19:40:03.717Z,15.00
2022-11-08T19:45:05.835Z,14.20
2022-11-08T19:50:07.856Z,13.40
2022-11-08T19:50:14.705Z,13.40
2022-11-08T19:55:05.807Z,12.80
2022-11-08T20:00:07.091Z,12.70
2022-11-08T20:05:07.893Z,12.80
2022-11-08T20:13:36.956Z,12.80
2022-11-08T20:15:01.613Z,12.70
2022-11-08T20:16:07.694Z,12.70
2022-11-08T20:27:52.994Z,12.70
2022-11-08T20:29:37.832Z,12.60
2022-11-08T20:34:38.585Z,12.50
2022-11-08T20:39:37.896Z,12.60
2022-11-08T20:44:37.881Z,12.70
2022-11-08T20:49:37.950Z,12.60
2022-11-08T20:54:43.622Z,12.50
2022-11-08T20:59:38.033Z,12.80
2022-11-08T21:09:49.330Z,12.90
2022-11-08T21:14:37.986Z,13.00
2022-11-08T21:29:38.235Z,12.90
2022-11-08T21:39:38.150Z,13.00
2022-11-08T21:44:38.093Z,12.90
2022-11-08T21:49:38.093Z,13.10
2022-11-08T22:04:38.144Z,13.20
2022-11-08T22:09:38.296Z,13.00
2022-11-08T22:19:39.264Z,13.30
2022-11-08T22:24:38.566Z,13.40
2022-11-08T22:29:38.187Z,13.60
2022-11-08T22:34:38.324Z,13.50
2022-11-08T22:39:38.207Z,13.70
2022-11-08T22:44:38.209Z,13.80
2022-11-08T22:49:43.884Z,13.70
2022-11-08T22:54:38.314Z,13.50
2022-11-08T22:59:38.277Z,13.30
2022-11-08T23:04:38.315Z,13.40
2022-11-08T23:09:38.271Z,13.50
2022-11-08T23:14:48.228Z,13.60
2022-11-08T23:19:48.242Z,13.40
2022-11-08T23:24:39.796Z,13.30
2022-11-08T23:34:38.336Z,13.40
2022-11-08T23:44:38.434Z,13.20
2022-11-08T23:49:38.346Z,13.10
2022-11-08T23:54:38.385Z,13.20
